Terminal Aerodrome Forecast
Issued by NWS Flagstaff, AZ

Home | Current Version | Previous Version | Text Only | Print | Product List | Glossary On
Versions: 1 2 3 4 5 6 7 8 9 10 11 12 13 14 15 16
000
FTUS45 KFGZ 270500
TAFINW
TAF
KINW 270537Z 2706/2806 26006KT P6SM FEW070
     FM272000 32008KT P6SM SCT080
     FM280200 26005KT P6SM FEW080=

USA.gov is the U.S. government's official web portal to all federal, state and local government web resources and services.